Terminal Aerodrome Forecast
Issued by NWS

Home | Current Version | Previous Version | Text Only | Print | Product List | Glossary On
Versions: 1 2 3 4 5 6 7 8 9 10 11 12 13 14 15 16 17 18 19
456
FTUS41 KGYX 231724
TAFHIE
TAF
KHIE 231724Z 2318/2418 29006KT P6SM BKN040 OVC250
     FM240000 00000KT P6SM BKN100
     FM241500 09003KT P6SM OVC040=

USA.gov is the U.S. government's official web portal to all federal, state and local government web resources and services.